createdAt,value
2019-02-17T00:08:31.003Z,7.10
2019-02-17T00:18:35.018Z,5.20
2019-02-17T00:28:39.026Z,7.00
2019-02-17T00:38:43.575Z,5.63
2019-02-17T00:48:47.428Z,5.77
2019-02-17T00:58:51.183Z,5.57
2019-02-17T01:08:55.201Z,6.47
2019-02-17T01:18:59.494Z,5.27
2019-02-17T01:29:03.271Z,5.87
2019-02-17T01:39:08.133Z,6.20
2019-02-17T01:49:12.168Z,5.70
2019-02-17T01:59:15.930Z,5.07
2019-02-17T02:09:20.295Z,4.53
2019-02-17T02:19:25.503Z,3.97
2019-02-17T02:29:29.613Z,5.20
2019-02-17T02:39:33.653Z,7.33
2019-02-17T02:49:37.936Z,9.50
2019-02-17T02:59:52.199Z,8.47
2019-02-17T03:09:47.514Z,12.30
2019-02-17T03:19:51.574Z,10.60
2019-02-17T03:30:04.390Z,9.87
2019-02-17T03:40:01.157Z,10.53
2019-02-17T03:50:05.790Z,8.53
2019-02-17T04:00:16.886Z,12.23
2019-02-17T04:10:15.484Z,10.53
2019-02-17T04:20:19.270Z,9.10
2019-02-17T04:30:29.304Z,10.07
2019-02-17T04:40:28.819Z,9.53
2019-02-17T04:50:32.910Z,9.50
2019-02-17T05:00:40.443Z,10.77
2019-02-17T05:10:44.444Z,10.43
2019-02-17T05:20:48.562Z,8.97
2019-02-17T05:30:53.486Z,6.97
2019-02-17T05:40:57.727Z,11.57
2019-02-17T05:51:02.124Z,8.77
2019-02-17T06:01:07.407Z,11.43
2019-02-17T06:11:11.709Z,6.83
2019-02-17T06:21:15.849Z,8.20
2019-02-17T06:31:20.158Z,9.40
2019-02-17T06:41:24.215Z,11.20
2019-02-17T06:51:28.784Z,11.70
2019-02-17T07:01:32.821Z,13.83
2019-02-17T07:11:37.395Z,11.53
2019-02-17T07:21:41.250Z,11.97
2019-02-17T07:31:45.593Z,13.13
2019-02-17T07:41:49.366Z,15.07
2019-02-17T07:51:53.128Z,15.63
2019-02-17T08:01:56.886Z,18.20
2019-02-17T08:12:00.942Z,20.00
2019-02-17T08:22:05.013Z,20.30
2019-02-17T08:32:09.058Z,12.70
2019-02-17T08:42:13.399Z,13.93
2019-02-17T08:52:17.193Z,15.00
2019-02-17T09:02:20.974Z,13.60
2019-02-17T09:23:28.658Z,20.47
2019-02-17T09:33:32.704Z,17.90
2019-02-17T09:43:36.785Z,15.53
2019-02-17T09:53:41.352Z,13.93
2019-02-17T10:03:45.720Z,13.70
2019-02-17T10:13:49.762Z,15.23
2019-02-17T10:23:53.567Z,16.13
2019-02-17T10:33:57.646Z,15.17
2019-02-17T10:44:01.719Z,15.43
2019-02-17T10:54:05.771Z,13.27
2019-02-17T11:04:11.075Z,15.63
2019-02-17T11:14:15.709Z,14.03
2019-02-17T11:24:19.781Z,13.90
2019-02-17T11:34:23.898Z,14.30
2019-02-17T11:44:27.687Z,13.17
2019-02-17T11:54:31.459Z,10.20
2019-02-17T12:04:35.346Z,13.33
2019-02-17T12:14:39.631Z,11.77
2019-02-17T12:25:02.771Z,11.17
2019-02-17T12:35:07.676Z,10.03
2019-02-17T12:45:17.481Z,12.37
2019-02-17T12:55:19.898Z,12.53
2019-02-17T13:05:24.217Z,10.93
2019-02-17T13:15:28.074Z,13.17
2019-02-17T13:25:32.442Z,12.27
2019-02-17T13:35:36.769Z,12.33
2019-02-17T13:45:40.574Z,10.97
2019-02-17T13:55:44.868Z,10.30
2019-02-17T14:05:48.654Z,10.53
2019-02-17T14:15:52.843Z,10.50
2019-02-17T14:25:56.982Z,13.60
2019-02-17T14:36:00.765Z,10.00
2019-02-17T14:46:04.786Z,6.67
2019-02-17T14:56:08.814Z,7.77
2019-02-17T15:06:12.834Z,6.90
2019-02-17T15:16:16.621Z,6.00
2019-02-17T15:26:20.942Z,5.83
2019-02-17T15:36:24.718Z,4.27
2019-02-17T15:46:28.771Z,5.67
2019-02-17T15:56:33.630Z,7.23
2019-02-17T16:06:37.672Z,6.50
2019-02-17T16:16:42.153Z,6.77
2019-02-17T16:26:46.203Z,5.90
2019-02-17T16:36:50.965Z,4.30
2019-02-17T16:46:55.230Z,4.47
2019-02-17T16:57:20.090Z,3.90
2019-02-17T17:07:23.872Z,5.00
2019-02-17T17:17:28.171Z,5.20
2019-02-17T17:27:32.574Z,4.50
2019-02-17T17:37:36.776Z,4.90
2019-02-17T17:47:41.305Z,5.97
2019-02-17T17:57:45.198Z,4.87
2019-02-17T18:07:48.986Z,4.40
2019-02-17T18:17:54.814Z,4.20
2019-02-17T18:28:10.018Z,4.87
2019-02-17T18:38:17.878Z,4.50
2019-02-17T18:48:22.034Z,4.23
2019-02-17T18:58:26.505Z,3.90
2019-02-17T19:08:30.996Z,5.10
2019-02-17T19:18:35.283Z,5.83
2019-02-17T19:28:39.348Z,5.23
2019-02-17T19:38:43.606Z,5.40
2019-02-17T19:49:44.951Z,4.93
2019-02-17T20:10:52.782Z,6.20
2019-02-17T20:20:56.917Z,5.10
2019-02-17T20:31:01.275Z,6.50
2019-02-17T20:41:05.694Z,8.10
2019-02-17T20:51:09.754Z,6.73
2019-02-17T21:01:14.058Z,5.17
2019-02-17T21:11:18.581Z,6.03
2019-02-17T21:21:22.666Z,4.43
2019-02-17T21:31:27.715Z,4.40
2019-02-17T21:41:31.834Z,5.53
2019-02-17T21:51:35.917Z,4.77
2019-02-17T22:01:40.102Z,4.77
2019-02-17T22:11:43.917Z,4.80
2019-02-17T22:21:47.825Z,4.67
2019-02-17T22:31:51.890Z,4.70
2019-02-17T22:41:56.156Z,4.43
2019-02-17T22:52:00.603Z,4.67
2019-02-17T23:02:06.154Z,3.73
2019-02-17T23:12:10.210Z,4.00
2019-02-17T23:22:13.994Z,5.20
2019-02-17T23:32:18.190Z,4.50
2019-02-17T23:42:22.579Z,4.80
2019-02-17T23:52:26.350Z,4.40
